Time;durP1;ratioP1;P1;durP2;ratioP2;P2;SDS_P1;SDS_P2;PMS_P1;PMS_P2;Temp;Humidity;BMP_temperature;BMP_pressure;BME280_temperature;BME280_humidity;BME280_pressure;Samples;Min_cycle;Max_cycle;Signal;HPM_P1;HPM_P2
2022/08/21 00:00:27;;;;;;;6.40;6.10;;;24.50;46.70;;;;;;5018383;28;20226;-59
2022/08/21 00:03:02;;;;;;;6.10;5.80;;;24.50;46.70;;;;;;5023328;28;20226;-58
2022/08/21 00:05:29;;;;;;;6.47;6.10;;;24.50;46.70;;;;;;5018092;28;20786;-59
2022/08/21 00:07:56;;;;;;;6.23;5.73;;;24.50;46.70;;;;;;5015751;28;20468;-58
2022/08/21 00:10:22;;;;;;;6.00;5.80;;;24.50;46.70;;;;;;5016444;28;20463;-61
2022/08/21 00:12:49;;;;;;;6.10;5.80;;;24.50;46.70;;;;;;5022134;28;20510;-59
2022/08/21 00:15:19;;;;;;;6.30;5.97;;;24.50;46.70;;;;;;5015845;28;20474;-60
2022/08/21 00:17:45;;;;;;;6.63;6.23;;;24.50;46.70;;;;;;5017885;28;21400;-59
2022/08/21 00:20:14;;;;;;;5.80;5.50;;;24.50;46.70;;;;;;5025737;28;21234;-58
2022/08/21 00:22:40;;;;;;;5.50;5.20;;;24.50;46.70;;;;;;5019916;28;20353;-59
2022/08/21 00:25:07;;;;;;;6.10;5.77;;;24.50;46.70;;;;;;5017760;28;21217;-59
2022/08/21 00:27:33;;;;;;;6.30;6.00;;;24.50;46.70;;;;;;5016999;28;20509;-58
2022/08/21 00:29:59;;;;;;;6.03;5.73;;;24.40;46.60;;;;;;5016420;28;20466;-59
2022/08/21 00:32:27;;;;;;;6.00;5.60;;;24.40;46.60;;;;;;5019358;28;20474;-59
2022/08/21 00:34:54;;;;;;;6.20;5.90;;;24.40;46.60;;;;;;5022490;28;20244;-60
2022/08/21 00:37:19;;;;;;;6.40;6.10;;;24.40;46.60;;;;;;5018706;28;20558;-61
2022/08/21 00:39:47;;;;;;;6.60;6.30;;;24.40;46.60;;;;;;5016671;28;20528;-59
2022/08/21 00:42:15;;;;;;;8.10;5.90;;;24.50;46.60;;;;;;5018116;28;20574;-59
2022/08/21 00:44:46;;;;;;;6.20;5.90;;;24.40;46.60;;;;;;5017135;28;20472;-58
2022/08/21 00:47:12;;;;;;;6.93;6.50;;;24.40;46.60;;;;;;5016948;28;20807;-58
2022/08/21 00:49:39;;;;;;;6.33;6.03;;;24.40;46.60;;;;;;5021074;28;20467;-58
2022/08/21 00:52:08;;;;;;;6.10;5.80;;;24.40;46.60;;;;;;5018860;28;20230;-58
2022/08/21 00:54:36;;;;;;;6.60;6.20;;;24.40;46.60;;;;;;5012731;28;20558;-60
2022/08/21 00:57:08;;;;;;;6.00;5.70;;;24.40;46.60;;;;;;5016787;28;20549;-60
2022/08/21 00:59:37;;;;;;;6.73;6.30;;;24.40;46.90;;;;;;5015962;28;20470;-59
2022/08/21 01:02:05;;;;;;;6.07;5.77;;;24.40;46.50;;;;;;5015668;28;20482;-60
2022/08/21 01:04:31;;;;;;;6.47;6.17;;;24.40;46.50;;;;;;5015233;28;20550;-59
2022/08/21 01:06:57;;;;;;;5.80;5.60;;;24.40;46.50;;;;;;5022047;28;20473;-59
2022/08/21 01:09:22;;;;;;;6.33;5.93;;;24.40;46.60;;;;;;5017136;28;20226;-60
2022/08/21 01:11:49;;;;;;;5.53;5.20;;;24.40;46.50;;;;;;5016762;28;20950;-60
2022/08/21 01:14:15;;;;;;;6.50;6.20;;;24.40;46.50;;;;;;5016553;28;20248;-59
2022/08/21 01:16:44;;;;;;;5.90;5.60;;;24.40;46.40;;;;;;5001329;28;20981;-59
2022/08/21 01:19:11;;;;;;;5.97;5.67;;;24.40;46.40;;;;;;5016768;28;20333;-58
2022/08/21 01:21:36;;;;;;;6.17;5.83;;;24.40;46.40;;;;;;5022316;28;20493;-59
2022/08/21 01:24:03;;;;;;;6.13;5.83;;;24.40;46.50;;;;;;5018032;28;20467;-58
2022/08/21 01:26:30;;;;;;;6.10;5.80;;;24.40;46.50;;;;;;5017756;28;20221;-59
2022/08/21 01:29:13;;;;;;;7.30;6.90;;;24.40;46.40;;;;;;5017536;28;20466;-59
2022/08/21 01:31:39;;;;;;;6.17;5.80;;;24.40;46.40;;;;;;5014983;28;20470;-59
2022/08/21 01:34:06;;;;;;;5.97;5.70;;;24.40;46.40;;;;;;5014478;28;20519;-59
2022/08/21 01:36:32;;;;;;;6.10;5.80;;;24.40;46.40;;;;;;5025422;28;20588;-58
2022/08/21 01:38:58;;;;;;;6.27;5.97;;;24.40;46.30;;;;;;5015085;28;20474;-59
2022/08/21 01:41:23;;;;;;;6.00;5.80;;;24.40;46.30;;;;;;5017424;28;20475;-59
2022/08/21 01:43:49;;;;;;;6.00;5.70;;;24.40;46.40;;;;;;5015542;28;20955;-59
2022/08/21 01:46:15;;;;;;;6.40;5.80;;;24.40;46.30;;;;;;5021423;28;20222;-59
2022/08/21 01:48:41;;;;;;;6.43;6.03;;;24.40;46.20;;;;;;5010760;28;20312;-59
2022/08/21 01:51:07;;;;;;;7.00;6.50;;;24.40;46.30;;;;;;5017959;28;20723;-59
2022/08/21 01:53:36;;;;;;;6.47;5.90;;;24.40;46.30;;;;;;5015638;28;20466;-59
2022/08/21 01:56:05;;;;;;;6.63;6.33;;;24.40;46.30;;;;;;5015773;28;20609;-59
2022/08/21 01:58:33;;;;;;;6.30;6.00;;;24.40;46.20;;;;;;5015634;28;20553;-60
2022/08/21 02:01:01;;;;;;;6.33;5.97;;;24.40;46.20;;;;;;5017379;28;20478;-58
2022/08/21 02:03:30;;;;;;;6.60;6.30;;;24.40;46.30;;;;;;5015090;28;20482;-58
2022/08/21 02:05:56;;;;;;;7.03;6.53;;;24.40;46.20;;;;;;5014339;28;21020;-59
2022/08/21 02:08:23;;;;;;;7.50;6.90;;;24.40;46.20;;;;;;5024252;28;20458;-59
2022/08/21 02:10:50;;;;;;;6.13;5.87;;;24.40;46.20;;;;;;5015083;28;20479;-58
2022/08/21 02:13:16;;;;;;;6.03;5.77;;;24.40;46.20;;;;;;5019885;28;22549;-60
2022/08/21 02:15:42;;;;;;;6.40;6.00;;;24.40;46.20;;;;;;5015092;28;20462;-59
2022/08/21 02:18:07;;;;;;;6.07;5.77;;;24.40;46.20;;;;;;5018317;28;20513;-59
2022/08/21 02:20:42;;;;;;;6.10;5.80;;;24.40;46.20;;;;;;5014547;28;20775;-59
2022/08/21 02:23:09;;;;;;;6.37;6.07;;;24.40;46.10;;;;;;5015446;28;20716;-58
2022/08/21 02:25:36;;;;;;;6.60;5.93;;;24.40;46.10;;;;;;5008839;28;20467;-59
2022/08/21 02:28:08;;;;;;;5.93;5.63;;;24.40;46.10;;;;;;5015880;28;20824;-58
2022/08/21 02:30:39;;;;;;;6.50;6.10;;;24.40;46.10;;;;;;5011001;28;20598;-59
2022/08/21 02:33:06;;;;;;;6.63;6.30;;;24.40;46.00;;;;;;5016168;28;20547;-59
2022/08/21 02:35:32;;;;;;;6.27;5.93;;;24.40;46.00;;;;;;5014853;28;22184;-58
2022/08/21 02:38:01;;;;;;;6.20;5.90;;;24.40;46.00;;;;;;5018607;28;20452;-58
2022/08/21 02:40:30;;;;;;;7.10;6.43;;;24.40;46.00;;;;;;5013398;28;20455;-59
2022/08/21 02:43:00;;;;;;;6.53;6.23;;;24.40;46.00;;;;;;5016868;28;20467;-59
2022/08/21 02:45:28;;;;;;;6.90;6.50;;;24.40;46.00;;;;;;5018419;28;20529;-59
2022/08/21 02:47:57;;;;;;;6.23;5.90;;;24.40;45.90;;;;;;5020326;28;20976;-59
2022/08/21 02:50:29;;;;;;;6.33;6.03;;;24.40;45.90;;;;;;5021297;28;20463;-59
2022/08/21 02:52:55;;;;;;;6.70;6.20;;;24.40;45.90;;;;;;5005646;28;20589;-58
2022/08/21 02:55:23;;;;;;;6.50;6.20;;;24.40;45.90;;;;;;5020209;28;20483;-59
2022/08/21 02:57:49;;;;;;;5.93;5.63;;;24.40;45.90;;;;;;5000383;28;20467;-58
2022/08/21 03:00:15;;;;;;;7.23;6.47;;;24.40;45.90;;;;;;5021213;28;20505;-59
2022/08/21 03:02:41;;;;;;;6.40;6.00;;;24.40;45.90;;;;;;5029378;28;20471;-60
2022/08/21 03:05:09;;;;;;;6.37;6.07;;;24.40;45.90;;;;;;5026809;28;20454;-59
2022/08/21 03:07:36;;;;;;;7.27;6.70;;;24.40;45.80;;;;;;5028548;28;21014;-59
2022/08/21 03:10:06;;;;;;;6.63;6.27;;;24.40;45.80;;;;;;5030006;28;20465;-60
2022/08/21 03:12:32;;;;;;;6.37;5.87;;;24.40;45.80;;;;;;5030191;28;20855;-58
2022/08/21 03:14:58;;;;;;;6.90;6.40;;;24.40;45.80;;;;;;5020405;28;20533;-60
2022/08/21 03:17:24;;;;;;;7.17;6.70;;;24.40;45.80;;;;;;5031307;28;20242;-60
2022/08/21 03:19:50;;;;;;;6.03;5.67;;;24.40;45.80;;;;;;5022951;28;20271;-58
2022/08/21 03:22:15;;;;;;;6.50;6.03;;;24.40;45.80;;;;;;5025810;28;24312;-61
2022/08/21 03:24:41;;;;;;;8.20;6.30;;;24.40;45.70;;;;;;5030046;28;20217;-60
2022/08/21 03:27:07;;;;;;;7.30;6.80;;;24.40;45.80;;;;;;5028269;28;20214;-59
2022/08/21 03:29:32;;;;;;;6.90;6.43;;;24.40;45.70;;;;;;5026381;28;20219;-59
2022/08/21 03:31:58;;;;;;;6.33;5.93;;;24.40;45.70;;;;;;5011728;28;20261;-59
2022/08/21 03:34:24;;;;;;;7.50;6.80;;;24.40;45.70;;;;;;5028946;28;20269;-59
2022/08/21 03:36:50;;;;;;;7.00;6.50;;;24.40;45.70;;;;;;5025439;28;20222;-59
2022/08/21 03:39:17;;;;;;;6.30;5.93;;;24.40;45.70;;;;;;5027424;28;20253;-58
2022/08/21 03:41:42;;;;;;;6.63;6.13;;;24.40;45.70;;;;;;5027281;28;20234;-60
2022/08/21 03:44:08;;;;;;;6.20;5.90;;;24.30;45.60;;;;;;5028164;28;20459;-58
2022/08/21 03:46:33;;;;;;;6.80;6.20;;;24.40;45.60;;;;;;5028101;28;20229;-58
2022/08/21 03:48:59;;;;;;;6.70;6.30;;;24.40;45.60;;;;;;5025864;28;20240;-59
2022/08/21 03:51:25;;;;;;;7.73;7.03;;;24.30;45.50;;;;;;5028324;28;23508;-59
2022/08/21 03:53:51;;;;;;;6.90;6.50;;;24.30;45.50;;;;;;5027677;28;20250;-59
2022/08/21 03:56:16;;;;;;;7.07;6.60;;;24.30;45.40;;;;;;5028525;28;20735;-59
2022/08/21 03:58:44;;;;;;;6.90;6.60;;;24.30;45.50;;;;;;5027102;28;20550;-59
2022/08/21 04:01:10;;;;;;;6.77;6.43;;;24.30;45.50;;;;;;5026143;28;20226;-59
2022/08/21 04:03:36;;;;;;;6.47;6.17;;;24.30;45.40;;;;;;5020549;28;20483;-59
2022/08/21 04:06:03;;;;;;;6.40;6.00;;;24.30;45.40;;;;;;5027944;28;20213;-58
2022/08/21 04:08:29;;;;;;;6.63;6.00;;;24.30;45.30;;;;;;5023848;28;20471;-58
2022/08/21 04:10:57;;;;;;;6.83;6.47;;;24.30;45.30;;;;;;5031264;28;20954;-58
2022/08/21 04:13:24;;;;;;;6.90;6.50;;;24.30;45.30;;;;;;5026111;28;20522;-60
2022/08/21 04:15:50;;;;;;;6.40;6.10;;;24.30;45.40;;;;;;5026054;28;20466;-58
2022/08/21 04:18:16;;;;;;;6.50;6.10;;;24.30;45.30;;;;;;5028245;28;20467;-59
2022/08/21 04:20:44;;;;;;;7.30;6.70;;;24.30;45.20;;;;;;5019977;28;20950;-58
2022/08/21 04:23:10;;;;;;;6.73;6.40;;;24.30;45.20;;;;;;5026781;28;20476;-59
2022/08/21 04:25:35;;;;;;;7.57;6.80;;;24.30;45.20;;;;;;5016036;28;20472;-59
2022/08/21 04:28:01;;;;;;;6.40;6.00;;;24.30;45.20;;;;;;5014638;28;20218;-59
2022/08/21 04:30:27;;;;;;;9.37;6.90;;;24.30;45.20;;;;;;5025755;28;20683;-59
2022/08/21 04:32:53;;;;;;;7.23;6.63;;;24.30;45.20;;;;;;5028332;28;20473;-58
2022/08/21 04:35:21;;;;;;;6.83;6.30;;;24.30;45.20;;;;;;5023966;28;20238;-58
2022/08/21 04:37:47;;;;;;;6.70;6.30;;;24.30;45.10;;;;;;5027816;28;20233;-59
2022/08/21 04:40:16;;;;;;;5.50;5.20;;;24.30;45.10;;;;;;5025294;28;20821;-59
2022/08/21 04:42:52;;;;;;;6.23;5.83;;;24.30;45.10;;;;;;5029172;28;20279;-59
2022/08/21 04:45:23;;;;;;;6.93;6.40;;;24.30;45.10;;;;;;5029267;28;21460;-58
2022/08/21 04:47:50;;;;;;;6.50;5.97;;;24.30;45.10;;;;;;5028341;28;20811;-58
2022/08/21 04:50:16;;;;;;;6.63;6.10;;;24.30;45.10;;;;;;5006705;28;21822;-57
2022/08/21 04:52:43;;;;;;;6.37;5.97;;;24.40;45.20;;;;;;5025750;28;20485;-58
2022/08/21 04:55:09;;;;;;;6.20;5.90;;;24.40;45.10;;;;;;5023598;28;20227;-58
2022/08/21 04:57:35;;;;;;;6.77;6.17;;;24.40;45.10;;;;;;5026123;28;20493;-62
2022/08/21 05:00:01;;;;;;;6.80;6.23;;;24.40;45.10;;;;;;5026405;28;20224;-60
2022/08/21 05:02:27;;;;;;;6.80;6.50;;;24.40;45.10;;;;;;5026225;28;20467;-59
2022/08/21 05:04:55;;;;;;;6.37;5.87;;;24.40;45.10;;;;;;5027205;28;20477;-59
2022/08/21 05:07:25;;;;;;;6.27;5.77;;;24.40;45.00;;;;;;5020148;28;20229;-60
2022/08/21 05:09:51;;;;;;;5.80;5.50;;;24.40;45.10;;;;;;5018489;28;20479;-58
2022/08/21 05:12:17;;;;;;;7.37;6.23;;;24.40;45.10;;;;;;5023560;28;20498;-61
2022/08/21 05:14:43;;;;;;;5.40;5.10;;;24.40;45.00;;;;;;5017573;28;20495;-58
2022/08/21 05:17:09;;;;;;;6.80;6.40;;;24.40;45.10;;;;;;5019130;28;20222;-60
2022/08/21 05:19:35;;;;;;;6.20;5.60;;;24.40;45.10;;;;;;5015864;28;20226;-59
2022/08/21 05:22:01;;;;;;;6.13;5.73;;;24.40;45.10;;;;;;5016003;28;20471;-59
2022/08/21 05:24:27;;;;;;;6.10;5.70;;;24.40;45.10;;;;;;4997396;28;20490;-59
2022/08/21 05:26:53;;;;;;;5.90;5.60;;;24.40;45.10;;;;;;5029089;28;20226;-59
2022/08/21 05:29:19;;;;;;;5.97;5.67;;;24.40;45.10;;;;;;5014406;28;20941;-58
2022/08/21 05:31:47;;;;;;;5.50;5.20;;;24.40;45.10;;;;;;5017042;28;20234;-59
2022/08/21 05:34:23;;;;;;;6.03;5.63;;;24.40;45.10;;;;;;5014036;28;20471;-60
2022/08/21 05:36:49;;;;;;;6.40;6.00;;;24.40;45.00;;;;;;5017052;28;21752;-60
2022/08/21 05:39:16;;;;;;;6.10;5.73;;;24.50;45.20;;;;;;5019344;28;20490;-60
2022/08/21 05:41:41;;;;;;;6.63;6.23;;;24.40;45.10;;;;;;5020058;28;20478;-60
2022/08/21 05:44:07;;;;;;;6.53;6.13;;;24.50;45.20;;;;;;5020585;28;21620;-59
2022/08/21 05:46:33;;;;;;;5.73;5.27;;;24.40;45.00;;;;;;5010473;28;20357;-59
2022/08/21 05:48:58;;;;;;;5.40;5.10;;;24.50;45.10;;;;;;5012560;28;20222;-59
2022/08/21 05:51:24;;;;;;;5.93;5.40;;;24.50;45.10;;;;;;5019123;28;20284;-59
2022/08/21 05:53:50;;;;;;;5.60;5.20;;;24.50;45.00;;;;;;5020236;28;20221;-55
2022/08/21 05:56:16;;;;;;;5.57;5.27;;;24.50;45.10;;;;;;5014942;28;21155;-60
2022/08/21 05:58:42;;;;;;;6.30;5.90;;;24.50;45.00;;;;;;5021227;28;20783;-60
2022/08/21 06:01:08;;;;;;;6.10;5.70;;;24.50;45.00;;;;;;5010132;28;20466;-59
2022/08/21 06:03:38;;;;;;;5.20;4.90;;;24.50;45.00;;;;;;5017783;28;20245;-60
2022/08/21 06:06:04;;;;;;;5.83;5.40;;;24.50;44.90;;;;;;5019264;28;20454;-58
2022/08/21 06:08:30;;;;;;;5.33;5.03;;;24.50;44.80;;;;;;5020211;28;20525;-59
2022/08/21 06:10:58;;;;;;;6.90;5.20;;;24.50;44.80;;;;;;5006950;28;21077;-59
2022/08/21 06:13:24;;;;;;;5.37;5.07;;;24.50;44.80;;;;;;5022205;28;20226;-59
2022/08/21 06:16:00;;;;;;;4.47;4.20;;;24.50;44.80;;;;;;5017039;28;20490;-59
2022/08/21 06:18:26;;;;;;;5.30;5.00;;;24.50;44.70;;;;;;5011263;28;20229;-59
2022/08/21 06:20:52;;;;;;;5.33;4.93;;;24.50;44.70;;;;;;5021404;28;20458;-59
2022/08/21 06:23:17;;;;;;;5.10;4.80;;;24.50;44.80;;;;;;5016144;28;20492;-59
2022/08/21 06:25:43;;;;;;;5.03;4.73;;;24.50;44.70;;;;;;5018426;28;20229;-58
2022/08/21 06:28:10;;;;;;;4.80;4.60;;;24.50;44.70;;;;;;5015301;28;20276;-59
2022/08/21 06:30:37;;;;;;;4.90;4.60;;;24.50;44.70;;;;;;5024205;28;20229;-59
2022/08/21 06:33:03;;;;;;;5.00;4.80;;;24.50;44.70;;;;;;5013486;28;20516;-58
2022/08/21 06:35:29;;;;;;;4.30;4.10;;;24.50;44.70;;;;;;5020732;28;20558;-58
2022/08/21 06:37:57;;;;;;;5.23;4.93;;;24.50;44.60;;;;;;5019601;28;20232;-58
2022/08/21 06:40:23;;;;;;;4.60;4.40;;;24.50;44.60;;;;;;5019496;28;20490;-59
2022/08/21 06:42:48;;;;;;;4.23;4.03;;;24.50;44.60;;;;;;4996641;28;20556;-60
2022/08/21 06:45:15;;;;;;;3.97;3.77;;;24.50;44.60;;;;;;5012473;28;20471;-59
2022/08/21 06:47:41;;;;;;;4.60;4.40;;;24.50;44.60;;;;;;5017678;28;20317;-58
2022/08/21 06:50:07;;;;;;;4.80;4.50;;;24.50;44.60;;;;;;5016163;28;20467;-59
2022/08/21 06:52:35;;;;;;;4.80;4.50;;;24.50;44.60;;;;;;5018395;28;20566;-59
2022/08/21 06:55:01;;;;;;;4.73;4.33;;;24.50;44.60;;;;;;5012769;28;20473;-59
2022/08/21 06:57:26;;;;;;;4.17;3.97;;;24.50;44.60;;;;;;5016601;28;20710;-61
2022/08/21 06:59:52;;;;;;;4.17;3.87;;;24.50;44.50;;;;;;5017023;28;20214;-58
2022/08/21 07:02:18;;;;;;;4.57;4.20;;;24.50;44.50;;;;;;5019685;28;20716;-60
2022/08/21 07:04:43;;;;;;;4.80;4.50;;;24.50;44.50;;;;;;5015447;28;20222;-58
2022/08/21 07:07:09;;;;;;;4.80;4.50;;;24.50;44.50;;;;;;5019498;28;20233;-58
2022/08/21 07:09:35;;;;;;;4.07;3.87;;;24.50;44.40;;;;;;5017266;28;20253;-60
2022/08/21 07:12:02;;;;;;;6.50;4.40;;;24.50;44.40;;;;;;5015458;28;20321;-59
2022/08/21 07:14:28;;;;;;;4.10;3.90;;;24.50;44.50;;;;;;5015466;28;20366;-59
2022/08/21 07:16:54;;;;;;;4.10;3.80;;;24.50;44.50;;;;;;5022121;28;20519;-60
2022/08/21 07:19:20;;;;;;;4.20;4.00;;;24.50;44.40;;;;;;5018667;28;20246;-61
2022/08/21 07:21:46;;;;;;;4.00;3.70;;;24.50;44.40;;;;;;5017137;28;20234;-59
2022/08/21 07:24:12;;;;;;;4.63;4.20;;;24.50;44.40;;;;;;5019425;28;20999;-58
2022/08/21 07:26:38;;;;;;;4.00;3.80;;;24.50;44.40;;;;;;5009989;28;20222;-59
2022/08/21 07:29:04;;;;;;;4.43;4.20;;;24.50;44.30;;;;;;5022499;28;20965;-59
2022/08/21 07:31:30;;;;;;;3.70;3.50;;;24.50;44.30;;;;;;5026866;28;20300;-60
2022/08/21 07:33:55;;;;;;;3.70;3.50;;;24.50;44.30;;;;;;5019881;28;20474;-59
2022/08/21 07:36:21;;;;;;;3.80;3.60;;;24.50;44.40;;;;;;5016242;28;20727;-58
2022/08/21 07:38:47;;;;;;;3.60;3.40;;;24.50;44.30;;;;;;5019164;28;20294;-58
2022/08/21 07:41:19;;;;;;;3.57;3.37;;;24.50;44.30;;;;;;5006365;28;20364;-58
2022/08/21 07:43:46;;;;;;;3.90;3.70;;;24.50;44.30;;;;;;5022081;28;20696;-59
2022/08/21 07:46:12;;;;;;;4.37;3.70;;;24.50;44.30;;;;;;5021847;28;20509;-58
2022/08/21 07:48:38;;;;;;;3.97;3.77;;;24.50;44.30;;;;;;5019036;28;20467;-61
2022/08/21 07:51:07;;;;;;;4.00;3.80;;;24.50;44.30;;;;;;5016053;28;22248;-58
2022/08/21 07:53:34;;;;;;;3.30;3.10;;;24.50;44.20;;;;;;5016354;28;20261;-58
2022/08/21 07:55:59;;;;;;;3.70;3.50;;;24.50;44.40;;;;;;5019586;28;20475;-59
2022/08/21 07:58:25;;;;;;;3.23;3.10;;;24.50;44.30;;;;;;5021017;28;20452;-60
2022/08/21 08:00:51;;;;;;;3.43;3.23;;;24.50;44.30;;;;;;5019010;28;20222;-58
2022/08/21 08:03:16;;;;;;;3.50;3.30;;;24.50;44.30;;;;;;5029068;28;20478;-59
2022/08/21 08:05:42;;;;;;;3.93;3.63;;;24.50;44.20;;;;;;5011627;28;20222;-58
2022/08/21 08:08:08;;;;;;;3.47;3.27;;;24.50;44.20;;;;;;5016002;28;20245;-58
2022/08/21 08:10:35;;;;;;;3.33;3.13;;;24.50;44.20;;;;;;5001871;28;20214;-58
2022/08/21 08:13:01;;;;;;;3.40;3.20;;;24.50;44.30;;;;;;5000077;28;20230;-58
2022/08/21 08:15:28;;;;;;;5.27;3.30;;;24.50;44.20;;;;;;5019691;28;20977;-58
2022/08/21 08:17:55;;;;;;;3.40;3.20;;;24.50;44.20;;;;;;5029873;28;20231;-59
2022/08/21 08:20:22;;;;;;;3.33;3.03;;;24.50;44.20;;;;;;5021628;28;20547;-60
2022/08/21 08:22:49;;;;;;;3.20;3.00;;;24.50;44.20;;;;;;5001764;28;20485;-59
2022/08/21 08:25:16;;;;;;;3.40;3.10;;;24.50;44.20;;;;;;5017433;28;20464;-60
2022/08/21 08:27:42;;;;;;;3.67;3.37;;;24.50;44.20;;;;;;5016705;28;20471;-58
2022/08/21 08:30:11;;;;;;;5.03;3.60;;;24.50;44.20;;;;;;5014790;28;20741;-58
2022/08/21 08:32:37;;;;;;;3.20;3.00;;;24.50;45.00;;;;;;5026408;28;20229;-60
2022/08/21 08:35:04;;;;;;;3.07;2.87;;;24.50;44.20;;;;;;5008137;28;20603;-60
2022/08/21 08:37:29;;;;;;;2.80;2.70;;;24.50;44.20;;;;;;4999527;28;20305;-59
2022/08/21 08:39:55;;;;;;;2.93;2.73;;;24.50;44.20;;;;;;5020686;28;20549;-61
2022/08/21 08:42:26;;;;;;;2.90;2.80;;;24.50;44.20;;;;;;5018504;28;20239;-58
2022/08/21 08:45:01;;;;;;;3.00;2.80;;;24.50;44.20;;;;;;5020563;28;20246;-58
2022/08/21 08:47:29;;;;;;;2.53;2.43;;;24.50;44.20;;;;;;5018295;28;20516;-59
2022/08/21 08:50:12;;;;;;;2.50;2.40;;;24.50;44.20;;;;;;5023313;28;20477;-60
2022/08/21 08:53:03;;;;;;;2.80;2.70;;;24.50;44.30;;;;;;5015198;28;20549;-58
2022/08/21 08:55:39;;;;;;;2.63;2.50;;;24.50;44.20;;;;;;5012700;28;20467;-59
2022/08/21 08:58:08;;;;;;;2.80;2.70;;;24.50;44.20;;;;;;5022007;28;20467;-57
2022/08/21 09:00:34;;;;;;;2.87;2.67;;;24.50;44.20;;;;;;5030972;28;20450;-59
2022/08/21 09:03:02;;;;;;;2.30;2.20;;;24.50;44.20;;;;;;5018203;28;20585;-58
2022/08/21 09:05:46;;;;;;;2.80;2.60;;;24.50;44.20;;;;;;5025622;28;20222;-58
2022/08/21 09:08:29;;;;;;;3.50;3.20;;;24.50;44.20;;;;;;5019899;28;20617;-58
2022/08/21 09:11:00;;;;;;;2.70;2.50;;;24.50;44.20;;;;;;5015603;28;20471;-58
2022/08/21 09:13:48;;;;;;;2.77;2.67;;;24.50;44.20;;;;;;5011114;28;20532;-58
2022/08/21 09:16:39;;;;;;;2.50;2.40;;;24.50;44.20;;;;;;5015322;28;20805;-58
2022/08/21 09:19:33;;;;;;;2.90;2.70;;;24.50;44.20;;;;;;5012709;28;20486;-58
2022/08/21 09:22:27;;;;;;;2.27;2.13;;;24.50;44.20;;;;;;5016906;28;20513;-59
2022/08/21 09:25:11;;;;;;;2.13;2.03;;;24.50;44.20;;;;;;5019059;28;20503;-58
2022/08/21 09:27:37;;;;;;;2.20;2.10;;;24.50;44.30;;;;;;5010687;28;20479;-58
2022/08/21 09:30:05;;;;;;;2.43;2.23;;;24.50;44.30;;;;;;5017779;28;20459;-60
2022/08/21 09:32:34;;;;;;;2.47;2.27;;;24.50;44.30;;;;;;5013140;28;20982;-58
2022/08/21 09:35:08;;;;;;;2.03;1.93;;;24.50;44.30;;;;;;5023422;28;20619;-58
2022/08/21 09:37:52;;;;;;;2.40;2.30;;;24.50;44.30;;;;;;5015148;28;20469;-58
2022/08/21 09:40:30;;;;;;;2.63;2.53;;;24.50;44.20;;;;;;5016563;28;20455;-58
2022/08/21 09:43:22;;;;;;;2.00;1.90;;;24.50;45.10;;;;;;5015009;28;20463;-58
2022/08/21 09:46:00;;;;;;;2.20;2.10;;;24.50;44.30;;;;;;5023242;28;20454;-58
2022/08/21 09:48:26;;;;;;;2.17;2.07;;;24.50;44.30;;;;;;4999837;28;20902;-58
2022/08/21 09:50:53;;;;;;;2.30;2.20;;;24.50;44.30;;;;;;5021589;28;20542;-59
2022/08/21 09:53:28;;;;;;;2.47;2.27;;;24.50;44.30;;;;;;5020950;28;20227;-57
2022/08/21 09:58:44;;;;;;;2.60;2.50;;;24.50;44.40;;;;;;5014858;28;20477;-58
2022/08/21 10:01:16;;;;;;;1.67;1.57;;;24.50;44.30;;;;;;5018669;28;21013;-60
2022/08/21 10:03:41;;;;;;;1.90;1.80;;;24.50;44.30;;;;;;5015071;28;20490;-59
2022/08/21 10:06:10;;;;;;;2.00;1.90;;;24.50;44.40;;;;;;5015607;28;20451;-58
2022/08/21 10:08:38;;;;;;;2.20;2.10;;;24.50;44.30;;;;;;5017083;28;20711;-59
2022/08/21 10:11:13;;;;;;;1.80;1.70;;;24.50;44.40;;;;;;5012131;28;20985;-60
2022/08/21 10:13:53;;;;;;;2.10;2.00;;;24.50;44.30;;;;;;5013489;28;20458;-59
2022/08/21 10:16:43;;;;;;;2.00;1.90;;;24.50;44.30;;;;;;5013541;28;20572;-59
2022/08/21 10:19:26;;;;;;;1.70;1.60;;;24.50;44.40;;;;;;5014874;28;20491;-59
2022/08/21 10:21:57;;;;;;;2.47;2.27;;;24.50;44.40;;;;;;5021550;28;20587;-58
2022/08/21 10:24:32;;;;;;;2.10;2.00;;;24.50;44.30;;;;;;5019634;28;20909;-58
2022/08/21 10:27:26;;;;;;;1.80;1.70;;;24.50;44.40;;;;;;5011568;28;20507;-60
2022/08/21 10:29:59;;;;;;;2.17;2.00;;;24.40;44.30;;;;;;5019242;28;20464;-59
2022/08/21 10:32:50;;;;;;;2.27;2.17;;;24.40;44.30;;;;;;5016118;28;20602;-59
2022/08/21 10:35:33;;;;;;;1.93;1.83;;;24.50;44.30;;;;;;5015904;28;20590;-60
2022/08/21 10:38:33;;;;;;;1.80;1.70;;;24.50;44.40;;;;;;5025520;28;20479;-58
2022/08/21 10:41:12;;;;;;;2.30;2.20;;;24.50;44.40;;;;;;5013447;28;20467;-58
2022/08/21 10:44:13;;;;;;;2.43;2.20;;;24.40;44.30;;;;;;5016506;28;20996;-59
2022/08/21 10:46:58;;;;;;;1.90;1.80;;;24.40;44.30;;;;;;5012502;28;20478;-60
2022/08/21 10:49:29;;;;;;;1.70;1.60;;;24.40;44.30;;;;;;5016437;28;20555;-57
2022/08/21 10:52:29;;;;;;;1.90;1.80;;;24.40;44.30;;;;;;5017491;28;21260;-58
2022/08/21 10:55:03;;;;;;;1.70;1.60;;;24.40;44.30;;;;;;5018530;28;20471;-59
2022/08/21 10:58:02;;;;;;;1.67;1.57;;;24.40;44.30;;;;;;5010081;28;20528;-59
2022/08/21 11:00:43;;;;;;;1.90;1.80;;;24.40;44.30;;;;;;5016688;28;21657;-60
2022/08/21 11:03:43;;;;;;;1.70;1.60;;;24.40;44.30;;;;;;5019877;28;21008;-61
2022/08/21 11:06:21;;;;;;;1.60;1.50;;;24.40;44.30;;;;;;5002370;28;20868;-58
2022/08/21 11:08:54;;;;;;;2.17;2.07;;;24.40;44.30;;;;;;5021141;28;22276;-58
2022/08/21 11:11:38;;;;;;;1.67;1.57;;;24.40;44.40;;;;;;5020023;28;20474;-58
2022/08/21 11:14:29;;;;;;;2.03;1.83;;;24.40;44.30;;;;;;5016683;28;21037;-57
2022/08/21 11:17:07;;;;;;;1.63;1.53;;;24.40;44.30;;;;;;5019036;28;20566;-58
2022/08/21 11:19:40;;;;;;;1.70;1.60;;;24.40;44.30;;;;;;5020830;28;20463;-60
2022/08/21 11:22:15;;;;;;;1.77;1.67;;;24.40;44.30;;;;;;5026905;28;20466;-58
2022/08/21 11:25:02;;;;;;;2.07;1.97;;;24.40;44.40;;;;;;5023140;28;20461;-59
2022/08/21 11:27:40;;;;;;;2.10;1.67;;;24.50;44.40;;;;;;5006406;28;20479;-57
2022/08/21 11:30:07;;;;;;;1.70;1.60;;;24.40;44.40;;;;;;5015593;28;20474;-61
2022/08/21 11:32:53;;;;;;;2.20;2.10;;;24.40;44.40;;;;;;5018512;28;20553;-58
2022/08/21 11:36:03;;;;;;;1.70;1.60;;;24.40;44.40;;;;;;5019082;28;20473;-58
2022/08/21 11:38:47;;;;;;;1.70;1.60;;;24.50;44.40;;;;;;5016821;28;20462;-60
2022/08/21 11:41:30;;;;;;;1.63;1.53;;;24.40;44.50;;;;;;5018971;28;20545;-58
2022/08/21 11:43:55;;;;;;;1.80;1.70;;;24.40;44.40;;;;;;5007067;28;20470;-58
2022/08/21 11:46:34;;;;;;;2.00;1.90;;;24.40;44.40;;;;;;5021368;28;20889;-58
2022/08/21 11:49:27;;;;;;;1.80;1.70;;;24.40;44.40;;;;;;5022191;28;20221;-58
2022/08/21 11:52:20;;;;;;;1.73;1.63;;;24.40;44.40;;;;;;5020288;28;21430;-59
2022/08/21 11:55:03;;;;;;;1.90;1.80;;;24.40;44.50;;;;;;5029089;28;20938;-59
2022/08/21 11:57:34;;;;;;;1.77;1.67;;;24.40;44.50;;;;;;5019499;28;20487;-59
2022/08/21 12:00:10;;;;;;;1.87;1.77;;;24.40;44.50;;;;;;5021184;28;20463;-59
2022/08/21 12:02:45;;;;;;;1.73;1.63;;;24.40;44.50;;;;;;5023009;28;20482;-58
2022/08/21 12:05:28;;;;;;;1.73;1.63;;;24.40;44.50;;;;;;5016043;28;20462;-59
2022/08/21 12:08:10;;;;;;;1.87;1.77;;;24.40;44.50;;;;;;5019951;28;20464;-58
2022/08/21 12:10:58;;;;;;;1.60;1.50;;;24.40;44.50;;;;;;5022518;28;20979;-58
2022/08/21 12:13:27;;;;;;;1.47;1.37;;;24.40;44.50;;;;;;5016983;28;20577;-59
2022/08/21 12:16:04;;;;;;;1.60;1.50;;;24.40;44.60;;;;;;5020259;28;20518;-60
2022/08/21 12:18:31;;;;;;;1.90;1.80;;;24.40;44.50;;;;;;5020885;28;20476;-60
2022/08/21 12:21:02;;;;;;;1.83;1.73;;;24.40;44.50;;;;;;5021182;28;20459;-60
2022/08/21 12:24:16;;;;;;;1.80;1.70;;;24.40;44.50;;;;;;5006914;28;20905;-58
2022/08/21 12:26:53;;;;;;;1.50;1.40;;;24.40;44.50;;;;;;5017246;28;20483;-58
2022/08/21 12:29:31;;;;;;;2.00;1.80;;;24.40;44.50;;;;;;5021973;28;20545;-59
2022/08/21 12:32:25;;;;;;;1.73;1.63;;;24.40;44.50;;;;;;5016423;28;20463;-60
2022/08/21 12:34:54;;;;;;;1.57;1.47;;;24.40;44.60;;;;;;5019389;28;20538;-58
2022/08/21 12:37:26;;;;;;;1.67;1.57;;;24.40;44.60;;;;;;5016118;28;20454;-58
2022/08/21 12:39:55;;;;;;;1.60;1.50;;;24.40;44.60;;;;;;5020073;28;20540;-58
2022/08/21 12:42:24;;;;;;;1.80;1.70;;;24.40;44.60;;;;;;5019747;28;20562;-59
2022/08/21 12:45:02;;;;;;;1.87;1.77;;;24.40;44.60;;;;;;5018136;28;20446;-60
2022/08/21 12:47:36;;;;;;;1.90;1.80;;;24.40;44.50;;;;;;5018866;28;20484;-61
2022/08/21 12:50:13;;;;;;;1.83;1.73;;;24.40;44.50;;;;;;5011723;28;22501;-58
2022/08/21 12:52:59;;;;;;;1.53;1.43;;;24.40;44.50;;;;;;5018872;28;20481;-59
2022/08/21 12:55:31;;;;;;;1.97;1.70;;;24.40;44.50;;;;;;5025705;28;20980;-59
2022/08/21 12:57:57;;;;;;;1.50;1.40;;;24.40;44.60;;;;;;5016383;28;20731;-58
2022/08/21 13:00:26;;;;;;;1.80;1.70;;;24.40;44.70;;;;;;5017285;28;20463;-59
2022/08/21 13:02:54;;;;;;;2.03;1.93;;;24.40;44.60;;;;;;5014844;28;20478;-58
2022/08/21 13:05:32;;;;;;;1.50;1.40;;;24.40;44.60;;;;;;5017847;28;21092;-59
2022/08/21 13:07:59;;;;;;;2.03;1.93;;;24.40;44.60;;;;;;5017527;28;20563;-61